Portada
METAR-TAF:

METAR-TAF

Aeroports :

Libreville, Gabon

latitud: 00-27N, longitud: 009-25E, altitud: 12 m

Observació

L'informe es va fer fa 9 minuts, a les 00:00 UTC
Vent 4 kt del Est
Temperatura 23°C
Humitat 100%
Pressió 1012 hPa
Visibilitat 10 km o més
Escasses núvols a una alçada de 1100 ft

METAR: FOOL 220000Z 08004KT 9999 FEW011 23/23 Q1012 NOSIG

Hora: 01:09 (00:09 UTC)

Pronòstic

L'informe es va fer fa 1 hora i 9 minuts, a les 23:00 UTC
Pronòstic vàlid del 22 a les 00 UTC al 23 a les 06 UTC
Vent 5 kt del Est
Visibilitat: 8000 m
Núvols disperses a una alçada de 1000 ft
Temporalment
l' 22 a les 03 UTC al 22 a les 09 UTC
Cel ennuvolat a una alçada de 1000 ft
Probabilitat 40% :
Temporalment
l' 22 a les 14 UTC al 22 a les 20 UTC
Núvols disperses a una alçada de 1200 ft
Escasses núvols a una alçada de 2000 ft, Cumulonimbus.
tempesta

TAF: FOOL 212300Z 2200/2306 09005KT 8000 SCT010 TEMPO 2203/2209 BKN010 PROB40 TEMPO 2214/2220 TS SCT012 FEW020CB

Observacions i pronòstics meteorològics de més de 4000 aeroports (METAR i TAF).

Les estacions disponibles són els punts grocs i vermells al mapa.

Posi el ratolí al punt desitjat per veure el nom de l'estació.

Feu clic per veure les observacions i els pronòstics meteorològics.

Per canviar el mapa: feu clic els botons verds amb una creu de color negre per apropar; al botó verd amb un guió per allunyar la imatge; o en les fletxes verdes per a mapes adjacents.


METAR-TAF: